sensor_id;sensor_type;location;lat;lon;timestamp;temperature;humidity
57709;SHT35;42558;52.388;13.390;2023-07-22T00:00:19;11.99;88.66
57709;SHT35;42558;52.388;13.390;2023-07-22T00:02:51;12.02;88.79
57709;SHT35;42558;52.388;13.390;2023-07-22T00:05:21;12.03;88.80
57709;SHT35;42558;52.388;13.390;2023-07-22T00:07:53;12.04;88.80
57709;SHT35;42558;52.388;13.390;2023-07-22T00:10:22;12.04;88.81
57709;SHT35;42558;52.388;13.390;2023-07-22T00:12:52;12.06;88.95
57709;SHT35;42558;52.388;13.390;2023-07-22T00:15:22;12.10;89.09
57709;SHT35;42558;52.388;13.390;2023-07-22T00:17:53;12.14;89.20
57709;SHT35;42558;52.388;13.390;2023-07-22T00:20:23;12.18;89.31
57709;SHT35;42558;52.388;13.390;2023-07-22T00:22:55;12.22;89.46
57709;SHT35;42558;52.388;13.390;2023-07-22T00:25:24;12.25;89.56
57709;SHT35;42558;52.388;13.390;2023-07-22T00:27:54;12.28;89.64
57709;SHT35;42558;52.388;13.390;2023-07-22T00:30:26;12.30;89.67
57709;SHT35;42558;52.388;13.390;2023-07-22T00:32:57;12.32;89.79
57709;SHT35;42558;52.388;13.390;2023-07-22T00:35:27;12.36;89.90
57709;SHT35;42558;52.388;13.390;2023-07-22T00:37:57;12.39;89.97
57709;SHT35;42558;52.388;13.390;2023-07-22T00:40:28;12.44;90.04
57709;SHT35;42558;52.388;13.390;2023-07-22T00:43:01;12.47;90.09
57709;SHT35;42558;52.388;13.390;2023-07-22T00:45:31;12.48;90.10
57709;SHT35;42558;52.388;13.390;2023-07-22T00:48:02;12.48;90.04
57709;SHT35;42558;52.388;13.390;2023-07-22T00:50:36;12.50;90.14
57709;SHT35;42558;52.388;13.390;2023-07-22T00:53:08;12.52;90.20
57709;SHT35;42558;52.388;13.390;2023-07-22T00:55:36;12.53;90.17
57709;SHT35;42558;52.388;13.390;2023-07-22T00:58:11;12.53;90.13
57709;SHT35;42558;52.388;13.390;2023-07-22T01:00:39;12.56;90.20
57709;SHT35;42558;52.388;13.390;2023-07-22T01:03:08;12.55;90.15
57709;SHT35;42558;52.388;13.390;2023-07-22T01:05:36;12.55;90.10
57709;SHT35;42558;52.388;13.390;2023-07-22T01:08:05;12.55;90.12
57709;SHT35;42558;52.388;13.390;2023-07-22T01:10:35;12.57;90.21
57709;SHT35;42558;52.388;13.390;2023-07-22T01:13:05;12.60;90.25
57709;SHT35;42558;52.388;13.390;2023-07-22T01:15:35;12.64;90.35
57709;SHT35;42558;52.388;13.390;2023-07-22T01:18:06;12.69;90.40
57709;SHT35;42558;52.388;13.390;2023-07-22T01:20:36;12.73;90.40
57709;SHT35;42558;52.388;13.390;2023-07-22T01:23:05;12.76;90.45
57709;SHT35;42558;52.388;13.390;2023-07-22T01:25:33;12.79;90.48
57709;SHT35;42558;52.388;13.390;2023-07-22T01:28:08;12.83;90.50
57709;SHT35;42558;52.388;13.390;2023-07-22T01:30:38;12.86;90.53
57709;SHT35;42558;52.388;13.390;2023-07-22T01:33:06;12.91;90.65
57709;SHT35;42558;52.388;13.390;2023-07-22T01:35:34;12.96;90.71
57709;SHT35;42558;52.388;13.390;2023-07-22T01:38:03;13.01;90.80
57709;SHT35;42558;52.388;13.390;2023-07-22T01:40:32;13.06;90.82
57709;SHT35;42558;52.388;13.390;2023-07-22T01:43:00;13.09;90.86
57709;SHT35;42558;52.388;13.390;2023-07-22T01:45:29;13.13;90.90
57709;SHT35;42558;52.388;13.390;2023-07-22T01:47:59;13.15;90.96
57709;SHT35;42558;52.388;13.390;2023-07-22T01:50:29;13.17;91.00
57709;SHT35;42558;52.388;13.390;2023-07-22T01:52:59;13.17;90.99
57709;SHT35;42558;52.388;13.390;2023-07-22T01:55:29;13.18;90.96
57709;SHT35;42558;52.388;13.390;2023-07-22T01:58:00;13.16;90.91
57709;SHT35;42558;52.388;13.390;2023-07-22T02:00:30;13.14;90.90
57709;SHT35;42558;52.388;13.390;2023-07-22T02:03:00;13.09;90.83
57709;SHT35;42558;52.388;13.390;2023-07-22T02:05:30;13.07;90.87
57709;SHT35;42558;52.388;13.390;2023-07-22T02:08:00;13.07;90.89
57709;SHT35;42558;52.388;13.390;2023-07-22T02:10:30;13.07;90.91
57709;SHT35;42558;52.388;13.390;2023-07-22T02:13:00;13.10;90.99
57709;SHT35;42558;52.388;13.390;2023-07-22T02:15:30;13.11;90.96
57709;SHT35;42558;52.388;13.390;2023-07-22T02:18:01;13.09;90.94
57709;SHT35;42558;52.388;13.390;2023-07-22T02:20:29;13.08;90.93
57709;SHT35;42558;52.388;13.390;2023-07-22T02:22:58;13.06;90.92
57709;SHT35;42558;52.388;13.390;2023-07-22T02:25:27;13.01;90.90
57709;SHT35;42558;52.388;13.390;2023-07-22T02:27:58;13.01;90.91
57709;SHT35;42558;52.388;13.390;2023-07-22T02:30:27;13.00;90.94
57709;SHT35;42558;52.388;13.390;2023-07-22T02:32:57;12.95;90.88
57709;SHT35;42558;52.388;13.390;2023-07-22T02:35:27;12.93;90.92
57709;SHT35;42558;52.388;13.390;2023-07-22T02:37:57;12.94;91.00
57709;SHT35;42558;52.388;13.390;2023-07-22T02:40:27;12.95;91.02
57709;SHT35;42558;52.388;13.390;2023-07-22T02:42:57;12.94;91.03
57709;SHT35;42558;52.388;13.390;2023-07-22T02:45:27;12.94;91.06
57709;SHT35;42558;52.388;13.390;2023-07-22T02:47:56;12.94;91.10
57709;SHT35;42558;52.388;13.390;2023-07-22T02:50:27;12.93;91.10
57709;SHT35;42558;52.388;13.390;2023-07-22T02:52:57;12.89;91.09
57709;SHT35;42558;52.388;13.390;2023-07-22T02:55:27;12.90;91.10
57709;SHT35;42558;52.388;13.390;2023-07-22T02:57:57;12.89;91.12
57709;SHT35;42558;52.388;13.390;2023-07-22T03:00:27;12.85;91.10
57709;SHT35;42558;52.388;13.390;2023-07-22T03:02:57;12.85;91.15
57709;SHT35;42558;52.388;13.390;2023-07-22T03:05:33;12.84;91.13
57709;SHT35;42558;52.388;13.390;2023-07-22T03:08:03;12.81;91.11
57709;SHT35;42558;52.388;13.390;2023-07-22T03:10:33;12.80;91.12
57709;SHT35;42558;52.388;13.390;2023-07-22T03:13:02;12.78;91.10
57709;SHT35;42558;52.388;13.390;2023-07-22T03:15:32;12.73;91.03
57709;SHT35;42558;52.388;13.390;2023-07-22T03:18:02;12.75;91.17
57709;SHT35;42558;52.388;13.390;2023-07-22T03:20:33;12.74;91.17
57709;SHT35;42558;52.388;13.390;2023-07-22T03:23:03;12.72;91.11
57709;SHT35;42558;52.388;13.390;2023-07-22T03:25:34;12.68;91.10
57709;SHT35;42558;52.388;13.390;2023-07-22T03:28:05;12.67;91.10
57709;SHT35;42558;52.388;13.390;2023-07-22T03:30:35;12.68;91.13
57709;SHT35;42558;52.388;13.390;2023-07-22T03:33:04;12.67;91.10
57709;SHT35;42558;52.388;13.390;2023-07-22T03:35:35;12.69;91.13
57709;SHT35;42558;52.388;13.390;2023-07-22T03:38:05;12.70;91.10
57709;SHT35;42558;52.388;13.390;2023-07-22T03:40:35;12.71;91.09
57709;SHT35;42558;52.388;13.390;2023-07-22T03:43:04;12.72;91.00
57709;SHT35;42558;52.388;13.390;2023-07-22T03:45:34;12.74;91.07
57709;SHT35;42558;52.388;13.390;2023-07-22T03:48:04;12.77;91.05
57709;SHT35;42558;52.388;13.390;2023-07-22T03:50:34;12.81;91.08
57709;SHT35;42558;52.388;13.390;2023-07-22T03:53:05;12.83;91.00
57709;SHT35;42558;52.388;13.390;2023-07-22T03:55:34;12.85;90.98
57709;SHT35;42558;52.388;13.390;2023-07-22T03:58:04;12.87;90.95
57709;SHT35;42558;52.388;13.390;2023-07-22T04:00:34;12.88;90.88
57709;SHT35;42558;52.388;13.390;2023-07-22T04:03:04;12.87;90.80
57709;SHT35;42558;52.388;13.390;2023-07-22T04:05:34;12.86;90.73
57709;SHT35;42558;52.388;13.390;2023-07-22T04:08:04;12.87;90.70
57709;SHT35;42558;52.388;13.390;2023-07-22T04:10:34;12.86;90.64
57709;SHT35;42558;52.388;13.390;2023-07-22T04:13:04;12.83;90.58
57709;SHT35;42558;52.388;13.390;2023-07-22T04:15:33;12.82;90.52
57709;SHT35;42558;52.388;13.390;2023-07-22T04:18:03;12.82;90.50
57709;SHT35;42558;52.388;13.390;2023-07-22T04:20:33;12.85;90.51
57709;SHT35;42558;52.388;13.390;2023-07-22T04:23:03;12.87;90.57
57709;SHT35;42558;52.388;13.390;2023-07-22T04:25:38;12.89;90.47
57709;SHT35;42558;52.388;13.390;2023-07-22T04:28:17;12.93;90.53
57709;SHT35;42558;52.388;13.390;2023-07-22T04:30:54;12.98;90.59
57709;SHT35;42558;52.388;13.390;2023-07-22T04:33:25;12.99;90.43
57709;SHT35;42558;52.388;13.390;2023-07-22T04:35:55;13.03;90.48
57709;SHT35;42558;52.388;13.390;2023-07-22T04:38:28;13.10;90.48
57709;SHT35;42558;52.388;13.390;2023-07-22T04:40:58;13.15;90.46
57709;SHT35;42558;52.388;13.390;2023-07-22T04:43:31;13.19;90.40
57709;SHT35;42558;52.388;13.390;2023-07-22T04:46:02;13.21;90.30
57709;SHT35;42558;52.388;13.390;2023-07-22T04:48:31;13.24;90.28
57709;SHT35;42558;52.388;13.390;2023-07-22T04:51:01;13.31;90.38
57709;SHT35;42558;52.388;13.390;2023-07-22T04:53:32;13.37;90.40
57709;SHT35;42558;52.388;13.390;2023-07-22T04:56:02;13.46;90.47
57709;SHT35;42558;52.388;13.390;2023-07-22T04:58:33;13.55;90.36
57709;SHT35;42558;52.388;13.390;2023-07-22T05:01:02;13.60;90.26
57709;SHT35;42558;52.388;13.390;2023-07-22T05:03:32;13.68;90.23
57709;SHT35;42558;52.388;13.390;2023-07-22T05:06:02;13.76;90.08
57709;SHT35;42558;52.388;13.390;2023-07-22T05:08:32;13.83;89.80
57709;SHT35;42558;52.388;13.390;2023-07-22T05:11:02;13.95;89.65
57709;SHT35;42558;52.388;13.390;2023-07-22T05:13:33;13.98;89.12
57709;SHT35;42558;52.388;13.390;2023-07-22T05:16:03;14.09;89.05
57709;SHT35;42558;52.388;13.390;2023-07-22T05:18:33;14.19;88.71
57709;SHT35;42558;52.388;13.390;2023-07-22T05:21:03;14.19;88.20
57709;SHT35;42558;52.388;13.390;2023-07-22T05:23:33;14.27;88.14
57709;SHT35;42558;52.388;13.390;2023-07-22T05:26:03;14.40;88.05
57709;SHT35;42558;52.388;13.390;2023-07-22T05:28:33;14.54;87.86
57709;SHT35;42558;52.388;13.390;2023-07-22T05:31:04;14.55;87.28
57709;SHT35;42558;52.388;13.390;2023-07-22T05:33:34;14.63;87.15
57709;SHT35;42558;52.388;13.390;2023-07-22T05:36:04;14.77;86.67
57709;SHT35;42558;52.388;13.390;2023-07-22T05:38:33;14.96;86.63
57709;SHT35;42558;52.388;13.390;2023-07-22T05:41:03;15.14;86.40
57709;SHT35;42558;52.388;13.390;2023-07-22T05:43:33;15.24;85.91
57709;SHT35;42558;52.388;13.390;2023-07-22T05:46:03;15.29;85.17
57709;SHT35;42558;52.388;13.390;2023-07-22T05:48:33;15.35;84.71
57709;SHT35;42558;52.388;13.390;2023-07-22T05:51:03;15.37;84.42
57709;SHT35;42558;52.388;13.390;2023-07-22T05:53:33;15.54;84.64
57709;SHT35;42558;52.388;13.390;2023-07-22T05:56:03;15.64;84.31
57709;SHT35;42558;52.388;13.390;2023-07-22T05:58:34;15.57;83.96
57709;SHT35;42558;52.388;13.390;2023-07-22T06:01:04;15.55;83.58
57709;SHT35;42558;52.388;13.390;2023-07-22T06:03:34;15.49;82.36
57709;SHT35;42558;52.388;13.390;2023-07-22T06:06:04;15.60;82.14
57709;SHT35;42558;52.388;13.390;2023-07-22T06:08:34;15.71;81.48
57709;SHT35;42558;52.388;13.390;2023-07-22T06:11:04;15.76;80.95
57709;SHT35;42558;52.388;13.390;2023-07-22T06:13:34;15.85;81.12
57709;SHT35;42558;52.388;13.390;2023-07-22T06:16:04;15.90;80.17
57709;SHT35;42558;52.388;13.390;2023-07-22T06:18:32;16.30;80.99
57709;SHT35;42558;52.388;13.390;2023-07-22T06:21:01;16.33;78.64
57709;SHT35;42558;52.388;13.390;2023-07-22T06:23:29;16.44;78.71
57709;SHT35;42558;52.388;13.390;2023-07-22T06:25:58;16.66;77.29
57709;SHT35;42558;52.388;13.390;2023-07-22T06:28:26;16.65;76.45
57709;SHT35;42558;52.388;13.390;2023-07-22T06:30:55;16.86;76.06
57709;SHT35;42558;52.388;13.390;2023-07-22T06:33:23;17.06;76.27
57709;SHT35;42558;52.388;13.390;2023-07-22T06:35:51;17.02;74.43
57709;SHT35;42558;52.388;13.390;2023-07-22T06:38:20;16.74;74.67
57709;SHT35;42558;52.388;13.390;2023-07-22T06:40:48;16.75;74.56
57709;SHT35;42558;52.388;13.390;2023-07-22T06:43:18;16.59;73.97
57709;SHT35;42558;52.388;13.390;2023-07-22T06:45:48;16.90;74.48
57709;SHT35;42558;52.388;13.390;2023-07-22T06:48:18;16.90;73.90
57709;SHT35;42558;52.388;13.390;2023-07-22T06:50:48;16.97;75.02
57709;SHT35;42558;52.388;13.390;2023-07-22T06:53:19;17.25;73.43
57709;SHT35;42558;52.388;13.390;2023-07-22T06:55:50;17.18;72.66
57709;SHT35;42558;52.388;13.390;2023-07-22T06:58:23;16.95;73.53
57709;SHT35;42558;52.388;13.390;2023-07-22T07:00:53;17.32;72.58
57709;SHT35;42558;52.388;13.390;2023-07-22T07:03:25;17.67;71.67
57709;SHT35;42558;52.388;13.390;2023-07-22T07:05:55;17.57;71.12
57709;SHT35;42558;52.388;13.390;2023-07-22T07:08:26;17.64;70.48
57709;SHT35;42558;52.388;13.390;2023-07-22T07:10:56;17.72;69.53
57709;SHT35;42558;52.388;13.390;2023-07-22T07:13:25;17.77;68.29
57709;SHT35;42558;52.388;13.390;2023-07-22T07:15:55;17.84;67.53
57709;SHT35;42558;52.388;13.390;2023-07-22T07:18:25;17.71;67.87
57709;SHT35;42558;52.388;13.390;2023-07-22T07:20:55;17.75;68.10
57709;SHT35;42558;52.388;13.390;2023-07-22T07:23:25;17.77;68.35
57709;SHT35;42558;52.388;13.390;2023-07-22T07:25:55;17.40;67.70
57709;SHT35;42558;52.388;13.390;2023-07-22T07:28:25;17.16;68.15
57709;SHT35;42558;52.388;13.390;2023-07-22T07:30:55;17.60;68.09
57709;SHT35;42558;52.388;13.390;2023-07-22T07:33:25;18.05;66.36
57709;SHT35;42558;52.388;13.390;2023-07-22T07:35:55;18.17;65.83
57709;SHT35;42558;52.388;13.390;2023-07-22T07:38:25;18.30;64.43
57709;SHT35;42558;52.388;13.390;2023-07-22T07:40:56;18.53;65.48
57709;SHT35;42558;52.388;13.390;2023-07-22T07:43:26;18.60;62.55
57709;SHT35;42558;52.388;13.390;2023-07-22T07:46:14;18.23;63.98
57709;SHT35;42558;52.388;13.390;2023-07-22T07:48:52;18.28;63.09
57709;SHT35;42558;52.388;13.390;2023-07-22T07:51:25;18.46;62.05
57709;SHT35;42558;52.388;13.390;2023-07-22T07:53:57;18.76;61.31
57709;SHT35;42558;52.388;13.390;2023-07-22T07:56:27;18.80;61.26
57709;SHT35;42558;52.388;13.390;2023-07-22T07:58:58;19.13;60.40
57709;SHT35;42558;52.388;13.390;2023-07-22T08:01:28;19.00;60.01
57709;SHT35;42558;52.388;13.390;2023-07-22T08:03:56;18.83;59.77
57709;SHT35;42558;52.388;13.390;2023-07-22T08:06:25;18.55;60.23
57709;SHT35;42558;52.388;13.390;2023-07-22T08:08:53;18.69;60.23
57709;SHT35;42558;52.388;13.390;2023-07-22T08:11:21;18.62;60.61
57709;SHT35;42558;52.388;13.390;2023-07-22T08:13:51;18.33;60.73
57709;SHT35;42558;52.388;13.390;2023-07-22T08:16:20;18.42;60.73
57709;SHT35;42558;52.388;13.390;2023-07-22T08:18:50;19.07;59.18
57709;SHT35;42558;52.388;13.390;2023-07-22T08:21:18;19.61;57.45
57709;SHT35;42558;52.388;13.390;2023-07-22T08:23:47;19.79;57.26
57709;SHT35;42558;52.388;13.390;2023-07-22T08:26:15;19.72;57.30
57709;SHT35;42558;52.388;13.390;2023-07-22T08:28:50;19.73;57.66
57709;SHT35;42558;52.388;13.390;2023-07-22T08:31:18;19.43;58.00
57709;SHT35;42558;52.388;13.390;2023-07-22T08:33:47;19.14;59.64
57709;SHT35;42558;52.388;13.390;2023-07-22T08:36:15;19.05;58.98
57709;SHT35;42558;52.388;13.390;2023-07-22T08:38:44;18.67;58.62
57709;SHT35;42558;52.388;13.390;2023-07-22T08:41:15;18.85;58.75
57709;SHT35;42558;52.388;13.390;2023-07-22T08:43:46;18.50;58.13
57709;SHT35;42558;52.388;13.390;2023-07-22T08:46:15;18.35;60.05
57709;SHT35;42558;52.388;13.390;2023-07-22T08:48:47;18.36;59.90
57709;SHT35;42558;52.388;13.390;2023-07-22T08:51:21;18.52;59.23
57709;SHT35;42558;52.388;13.390;2023-07-22T08:53:51;18.41;57.87
57709;SHT35;42558;52.388;13.390;2023-07-22T08:56:39;18.38;57.75
57709;SHT35;42558;52.388;13.390;2023-07-22T08:59:09;18.51;59.11
57709;SHT35;42558;52.388;13.390;2023-07-22T09:01:40;18.69;57.86
57709;SHT35;42558;52.388;13.390;2023-07-22T09:04:11;18.94;57.24
57709;SHT35;42558;52.388;13.390;2023-07-22T09:06:41;19.24;57.58
57709;SHT35;42558;52.388;13.390;2023-07-22T09:09:12;19.33;56.44
57709;SHT35;42558;52.388;13.390;2023-07-22T09:11:42;19.09;57.01
57709;SHT35;42558;52.388;13.390;2023-07-22T09:14:18;19.00;56.56
57709;SHT35;42558;52.388;13.390;2023-07-22T09:17:05;19.07;55.62
57709;SHT35;42558;52.388;13.390;2023-07-22T09:19:35;19.39;55.99
57709;SHT35;42558;52.388;13.390;2023-07-22T09:22:07;19.38;56.07
57709;SHT35;42558;52.388;13.390;2023-07-22T09:24:37;19.74;56.22
57709;SHT35;42558;52.388;13.390;2023-07-22T09:27:07;20.19;55.23
57709;SHT35;42558;52.388;13.390;2023-07-22T09:29:38;19.93;54.68
57709;SHT35;42558;52.388;13.390;2023-07-22T09:32:09;19.54;54.84
57709;SHT35;42558;52.388;13.390;2023-07-22T09:34:53;19.21;55.35
57709;SHT35;42558;52.388;13.390;2023-07-22T09:37:35;19.10;55.72
57709;SHT35;42558;52.388;13.390;2023-07-22T09:40:19;19.20;56.42
57709;SHT35;42558;52.388;13.390;2023-07-22T09:42:53;19.27;55.93
57709;SHT35;42558;52.388;13.390;2023-07-22T09:45:25;19.39;55.80
57709;SHT35;42558;52.388;13.390;2023-07-22T09:47:58;20.16;54.45
57709;SHT35;42558;52.388;13.390;2023-07-22T09:50:29;20.57;53.74
57709;SHT35;42558;52.388;13.390;2023-07-22T09:52:59;20.85;53.26
57709;SHT35;42558;52.388;13.390;2023-07-22T09:55:33;20.64;52.14
57709;SHT35;42558;52.388;13.390;2023-07-22T09:58:04;20.87;53.14
57709;SHT35;42558;52.388;13.390;2023-07-22T10:00:33;20.68;51.46
57709;SHT35;42558;52.388;13.390;2023-07-22T10:03:07;19.88;52.16
57709;SHT35;42558;52.388;13.390;2023-07-22T10:05:43;20.49;52.31
57709;SHT35;42558;52.388;13.390;2023-07-22T10:08:18;20.95;51.73
57709;SHT35;42558;52.388;13.390;2023-07-22T10:10:51;21.11;53.29
57709;SHT35;42558;52.388;13.390;2023-07-22T10:13:26;21.17;52.39
57709;SHT35;42558;52.388;13.390;2023-07-22T10:15:56;21.04;52.62
57709;SHT35;42558;52.388;13.390;2023-07-22T10:18:26;20.99;51.91
57709;SHT35;42558;52.388;13.390;2023-07-22T10:20:57;21.12;52.64
57709;SHT35;42558;52.388;13.390;2023-07-22T10:23:29;21.46;52.02
57709;SHT35;42558;52.388;13.390;2023-07-22T10:26:01;21.22;50.72
57709;SHT35;42558;52.388;13.390;2023-07-22T10:28:32;21.18;52.74
57709;SHT35;42558;52.388;13.390;2023-07-22T10:31:02;21.13;51.91
57709;SHT35;42558;52.388;13.390;2023-07-22T10:33:32;21.50;52.00
57709;SHT35;42558;52.388;13.390;2023-07-22T10:36:08;21.32;51.53
57709;SHT35;42558;52.388;13.390;2023-07-22T10:38:42;21.32;50.05
57709;SHT35;42558;52.388;13.390;2023-07-22T10:41:14;21.15;51.29
57709;SHT35;42558;52.388;13.390;2023-07-22T10:43:55;21.17;50.70
57709;SHT35;42558;52.388;13.390;2023-07-22T10:46:35;21.17;50.39
57709;SHT35;42558;52.388;13.390;2023-07-22T10:49:13;20.99;51.55
57709;SHT35;42558;52.388;13.390;2023-07-22T10:51:49;21.03;51.08
57709;SHT35;42558;52.388;13.390;2023-07-22T10:54:31;20.86;50.63
57709;SHT35;42558;52.388;13.390;2023-07-22T10:57:04;20.86;51.60
57709;SHT35;42558;52.388;13.390;2023-07-22T10:59:55;21.25;52.50
57709;SHT35;42558;52.388;13.390;2023-07-22T11:02:26;21.44;52.10
57709;SHT35;42558;52.388;13.390;2023-07-22T11:04:59;21.67;49.39
57709;SHT35;42558;52.388;13.390;2023-07-22T11:07:33;21.51;50.08
57709;SHT35;42558;52.388;13.390;2023-07-22T11:12:48;21.09;50.92
57709;SHT35;42558;52.388;13.390;2023-07-22T11:15:18;20.88;51.44
57709;SHT35;42558;52.388;13.390;2023-07-22T11:17:49;20.88;51.56
57709;SHT35;42558;52.388;13.390;2023-07-22T11:20:20;21.02;51.81
57709;SHT35;42558;52.388;13.390;2023-07-22T11:22:51;21.35;51.42
57709;SHT35;42558;52.388;13.390;2023-07-22T11:25:21;21.46;50.04
57709;SHT35;42558;52.388;13.390;2023-07-22T11:27:51;21.31;49.14
57709;SHT35;42558;52.388;13.390;2023-07-22T11:30:24;21.50;50.06
57709;SHT35;42558;52.388;13.390;2023-07-22T11:32:57;21.68;49.48
57709;SHT35;42558;52.388;13.390;2023-07-22T11:35:28;21.76;48.40
57709;SHT35;42558;52.388;13.390;2023-07-22T11:38:02;21.61;48.84
57709;SHT35;42558;52.388;13.390;2023-07-22T11:40:33;21.54;48.05
57709;SHT35;42558;52.388;13.390;2023-07-22T11:43:04;21.26;48.41
57709;SHT35;42558;52.388;13.390;2023-07-22T11:45:33;20.92;48.75
57709;SHT35;42558;52.388;13.390;2023-07-22T11:48:10;21.08;48.79
57709;SHT35;42558;52.388;13.390;2023-07-22T11:50:42;21.40;48.48
57709;SHT35;42558;52.388;13.390;2023-07-22T11:53:12;21.54;47.40
57709;SHT35;42558;52.388;13.390;2023-07-22T11:55:42;21.57;48.82
57709;SHT35;42558;52.388;13.390;2023-07-22T11:58:13;21.88;49.06
57709;SHT35;42558;52.388;13.390;2023-07-22T12:00:43;21.94;47.49
57709;SHT35;42558;52.388;13.390;2023-07-22T12:03:32;22.07;47.23
57709;SHT35;42558;52.388;13.390;2023-07-22T12:06:03;22.08;45.74
57709;SHT35;42558;52.388;13.390;2023-07-22T12:08:35;21.94;46.89
57709;SHT35;42558;52.388;13.390;2023-07-22T12:11:06;22.24;46.95
57709;SHT35;42558;52.388;13.390;2023-07-22T12:13:35;22.16;47.20
57709;SHT35;42558;52.388;13.390;2023-07-22T12:16:04;22.07;47.56
57709;SHT35;42558;52.388;13.390;2023-07-22T12:18:44;22.10;48.40
57709;SHT35;42558;52.388;13.390;2023-07-22T12:21:15;22.13;46.96
57709;SHT35;42558;52.388;13.390;2023-07-22T12:23:45;21.97;47.23
57709;SHT35;42558;52.388;13.390;2023-07-22T12:26:16;21.84;46.81
57709;SHT35;42558;52.388;13.390;2023-07-22T12:28:45;21.84;47.08
57709;SHT35;42558;52.388;13.390;2023-07-22T12:31:16;22.12;46.53
57709;SHT35;42558;52.388;13.390;2023-07-22T12:33:46;22.32;46.13
57709;SHT35;42558;52.388;13.390;2023-07-22T12:36:16;21.78;45.96
57709;SHT35;42558;52.388;13.390;2023-07-22T12:38:45;21.87;47.61
57709;SHT35;42558;52.388;13.390;2023-07-22T12:41:15;22.07;46.82
57709;SHT35;42558;52.388;13.390;2023-07-22T12:43:45;22.02;46.32
57709;SHT35;42558;52.388;13.390;2023-07-22T12:46:14;22.12;46.27
57709;SHT35;42558;52.388;13.390;2023-07-22T12:48:42;22.04;46.46
57709;SHT35;42558;52.388;13.390;2023-07-22T12:51:11;22.42;46.70
57709;SHT35;42558;52.388;13.390;2023-07-22T12:53:42;22.47;46.73
57709;SHT35;42558;52.388;13.390;2023-07-22T12:56:11;22.22;47.25
57709;SHT35;42558;52.388;13.390;2023-07-22T12:58:39;21.97;46.91
57709;SHT35;42558;52.388;13.390;2023-07-22T13:01:08;21.89;47.85
57709;SHT35;42558;52.388;13.390;2023-07-22T13:03:36;22.46;48.47
57709;SHT35;42558;52.388;13.390;2023-07-22T13:06:05;22.85;46.06
57709;SHT35;42558;52.388;13.390;2023-07-22T13:08:33;22.80;46.22
57709;SHT35;42558;52.388;13.390;2023-07-22T13:11:02;22.62;47.17
57709;SHT35;42558;52.388;13.390;2023-07-22T13:13:30;22.33;47.17
57709;SHT35;42558;52.388;13.390;2023-07-22T13:15:58;22.01;47.46
57709;SHT35;42558;52.388;13.390;2023-07-22T13:18:27;21.90;48.28
57709;SHT35;42558;52.388;13.390;2023-07-22T13:20:55;21.68;47.99
57709;SHT35;42558;52.388;13.390;2023-07-22T13:23:24;21.47;48.28
57709;SHT35;42558;52.388;13.390;2023-07-22T13:25:52;21.52;48.98
57709;SHT35;42558;52.388;13.390;2023-07-22T13:28:21;21.49;49.06
57709;SHT35;42558;52.388;13.390;2023-07-22T13:30:49;21.52;49.42
57709;SHT35;42558;52.388;13.390;2023-07-22T13:33:18;21.62;49.53
57709;SHT35;42558;52.388;13.390;2023-07-22T13:35:46;21.75;49.30
57709;SHT35;42558;52.388;13.390;2023-07-22T13:38:15;21.98;48.92
57709;SHT35;42558;52.388;13.390;2023-07-22T13:40:43;22.10;47.96
57709;SHT35;42558;52.388;13.390;2023-07-22T13:43:12;21.85;49.40
57709;SHT35;42558;52.388;13.390;2023-07-22T13:45:40;22.05;50.38
57709;SHT35;42558;52.388;13.390;2023-07-22T13:48:10;22.07;48.96
57709;SHT35;42558;52.388;13.390;2023-07-22T13:50:39;22.04;49.49
57709;SHT35;42558;52.388;13.390;2023-07-22T13:53:10;21.98;48.81
57709;SHT35;42558;52.388;13.390;2023-07-22T13:55:39;22.17;48.93
57709;SHT35;42558;52.388;13.390;2023-07-22T13:58:07;22.42;48.84
57709;SHT35;42558;52.388;13.390;2023-07-22T14:00:35;22.51;48.91
57709;SHT35;42558;52.388;13.390;2023-07-22T14:03:04;22.66;48.34
57709;SHT35;42558;52.388;13.390;2023-07-22T14:05:32;22.88;48.48
57709;SHT35;42558;52.388;13.390;2023-07-22T14:08:01;22.65;47.63
57709;SHT35;42558;52.388;13.390;2023-07-22T14:10:29;22.29;48.28
57709;SHT35;42558;52.388;13.390;2023-07-22T14:12:58;22.21;49.20
57709;SHT35;42558;52.388;13.390;2023-07-22T14:15:26;22.27;49.06
57709;SHT35;42558;52.388;13.390;2023-07-22T14:17:54;22.37;49.10
57709;SHT35;42558;52.388;13.390;2023-07-22T14:20:23;22.13;47.64
57709;SHT35;42558;52.388;13.390;2023-07-22T14:22:53;22.35;48.27
57709;SHT35;42558;52.388;13.390;2023-07-22T14:25:23;22.68;47.57
57709;SHT35;42558;52.388;13.390;2023-07-22T14:27:53;22.99;47.19
57709;SHT35;42558;52.388;13.390;2023-07-22T14:30:22;23.22;47.59
57709;SHT35;42558;52.388;13.390;2023-07-22T14:32:52;23.17;45.24
57709;SHT35;42558;52.388;13.390;2023-07-22T14:35:22;23.41;46.80
57709;SHT35;42558;52.388;13.390;2023-07-22T14:37:53;23.96;46.12
57709;SHT35;42558;52.388;13.390;2023-07-22T14:40:25;24.13;45.74
57709;SHT35;42558;52.388;13.390;2023-07-22T14:42:55;23.82;45.94
57709;SHT35;42558;52.388;13.390;2023-07-22T14:45:25;23.39;47.03
57709;SHT35;42558;52.388;13.390;2023-07-22T14:47:55;23.10;47.23
57709;SHT35;42558;52.388;13.390;2023-07-22T14:50:25;22.91;47.37
57709;SHT35;42558;52.388;13.390;2023-07-22T14:52:55;22.60;48.12
57709;SHT35;42558;52.388;13.390;2023-07-22T14:55:25;22.51;48.44
57709;SHT35;42558;52.388;13.390;2023-07-22T14:57:55;22.57;48.95
57709;SHT35;42558;52.388;13.390;2023-07-22T15:00:25;22.55;48.73
57709;SHT35;42558;52.388;13.390;2023-07-22T15:02:55;22.49;49.55
57709;SHT35;42558;52.388;13.390;2023-07-22T15:05:25;22.36;49.00
57709;SHT35;42558;52.388;13.390;2023-07-22T15:07:56;22.40;49.47
57709;SHT35;42558;52.388;13.390;2023-07-22T15:10:25;22.41;49.21
57709;SHT35;42558;52.388;13.390;2023-07-22T15:12:55;22.33;49.24
57709;SHT35;42558;52.388;13.390;2023-07-22T15:15:25;22.23;49.06
57709;SHT35;42558;52.388;13.390;2023-07-22T15:17:55;22.21;49.27
57709;SHT35;42558;52.388;13.390;2023-07-22T15:20:25;22.17;48.79
57709;SHT35;42558;52.388;13.390;2023-07-22T15:22:55;22.15;49.14
57709;SHT35;42558;52.388;13.390;2023-07-22T15:25:25;22.16;49.32
57709;SHT35;42558;52.388;13.390;2023-07-22T15:27:55;22.07;49.09
57709;SHT35;42558;52.388;13.390;2023-07-22T15:30:25;21.99;48.90
57709;SHT35;42558;52.388;13.390;2023-07-22T15:32:55;22.02;48.71
57709;SHT35;42558;52.388;13.390;2023-07-22T15:35:25;22.07;48.74
57709;SHT35;42558;52.388;13.390;2023-07-22T15:37:55;22.22;49.22